createdAt,value
2022-12-17T00:00:41.825Z,33.47
2022-12-17T00:03:28.925Z,31.50
2022-12-17T00:06:14.171Z,32.87
2022-12-17T00:08:59.497Z,31.60
2022-12-17T00:11:44.809Z,32.17
2022-12-17T00:14:30.160Z,31.43
2022-12-17T00:17:15.545Z,31.17
2022-12-17T00:20:00.896Z,33.57
2022-12-17T00:22:46.343Z,31.97
2022-12-17T00:25:31.797Z,32.60
2022-12-17T00:28:17.283Z,32.80
2022-12-17T00:31:02.641Z,31.80
2022-12-17T00:33:49.538Z,30.10
2022-12-17T00:36:34.869Z,30.87
2022-12-17T00:39:21.764Z,31.70
2022-12-17T00:42:07.104Z,29.77
2022-12-17T00:44:52.819Z,31.90
2022-12-17T00:47:39.396Z,30.37
2022-12-17T00:50:24.660Z,31.63
2022-12-17T00:53:11.115Z,29.87
2022-12-17T00:55:56.445Z,29.30
2022-12-17T00:58:42.388Z,29.57
2022-12-17T01:01:27.850Z,30.10
2022-12-17T01:04:13.131Z,31.17
2022-12-17T01:06:58.478Z,30.93
2022-12-17T01:09:43.942Z,30.13
2022-12-17T01:12:29.640Z,29.00
2022-12-17T01:15:15.077Z,30.70
2022-12-17T01:18:00.438Z,29.67
2022-12-17T01:20:45.870Z,28.57
2022-12-17T01:23:31.406Z,31.23
2022-12-17T01:26:16.670Z,28.20
2022-12-17T01:29:01.962Z,30.30
2022-12-17T01:31:47.430Z,30.17
2022-12-17T01:34:32.693Z,29.90
2022-12-17T01:37:18.091Z,29.90
2022-12-17T01:40:03.519Z,29.03
2022-12-17T01:42:57.064Z,28.07
2022-12-17T01:45:42.361Z,29.33
2022-12-17T01:48:32.043Z,29.13
2022-12-17T01:51:17.310Z,30.10
2022-12-17T01:54:07.716Z,30.37
2022-12-17T01:56:54.066Z,30.00
2022-12-17T01:59:42.462Z,28.53
2022-12-17T02:02:28.003Z,29.47
2022-12-17T02:05:13.358Z,28.47
2022-12-17T02:08:06.313Z,29.13
2022-12-17T02:11:00.761Z,28.57
2022-12-17T02:13:50.890Z,26.93
2022-12-17T02:16:43.562Z,25.83
2022-12-17T02:19:41.647Z,25.40
2022-12-17T02:22:32.696Z,25.03
2022-12-17T02:25:22.526Z,27.13
2022-12-17T02:28:08.418Z,25.90
2022-12-17T02:31:13.678Z,27.07
2022-12-17T02:34:00.371Z,26.57
2022-12-17T02:36:52.563Z,25.60
2022-12-17T02:39:40.776Z,26.43
2022-12-17T02:42:26.443Z,26.37
2022-12-17T02:45:14.139Z,26.37
2022-12-17T02:47:59.675Z,24.87
2022-12-17T02:50:45.112Z,22.80
2022-12-17T02:53:31.410Z,23.00
2022-12-17T02:56:16.898Z,21.07
2022-12-17T02:59:02.139Z,20.67
2022-12-17T03:01:47.742Z,19.37
2022-12-17T03:04:33.400Z,20.20
2022-12-17T03:07:18.787Z,18.30
2022-12-17T03:10:04.148Z,18.33
2022-12-17T03:12:51.978Z,18.47
2022-12-17T03:15:37.286Z,16.77
2022-12-17T03:18:22.820Z,15.40
2022-12-17T03:21:10.685Z,15.30
2022-12-17T03:23:56.082Z,13.83
2022-12-17T03:26:41.480Z,15.73
2022-12-17T03:29:26.878Z,15.20
2022-12-17T03:32:12.188Z,15.60
2022-12-17T03:34:57.451Z,15.37
2022-12-17T03:37:43.008Z,17.00
2022-12-17T03:40:28.616Z,15.57
2022-12-17T03:43:13.904Z,15.87
2022-12-17T03:45:59.240Z,16.70
2022-12-17T03:48:44.546Z,17.33
2022-12-17T03:51:29.922Z,17.27
2022-12-17T03:54:15.264Z,16.73
2022-12-17T03:57:00.671Z,16.83
2022-12-17T03:59:46.045Z,17.47
2022-12-17T04:02:31.723Z,16.73
2022-12-17T04:05:20.352Z,16.60
2022-12-17T04:08:06.054Z,17.67
2022-12-17T04:10:51.305Z,15.30
2022-12-17T04:13:40.726Z,16.90
2022-12-17T04:16:26.088Z,15.03
2022-12-17T04:19:11.337Z,15.50
2022-12-17T04:21:56.742Z,16.67
2022-12-17T04:24:41.913Z,16.03
2022-12-17T04:27:27.395Z,16.23
2022-12-17T04:30:12.828Z,15.07
2022-12-17T04:32:58.105Z,15.43
2022-12-17T04:35:43.518Z,14.77
2022-12-17T04:38:28.784Z,14.67
2022-12-17T04:41:14.045Z,15.67
2022-12-17T04:44:03.014Z,15.60
2022-12-17T04:46:50.458Z,15.83
2022-12-17T04:49:35.987Z,15.93
2022-12-17T04:52:22.907Z,16.47
2022-12-17T04:55:08.028Z,16.97
2022-12-17T04:57:53.451Z,16.73
2022-12-17T05:00:38.942Z,16.63
2022-12-17T05:03:24.851Z,16.27
2022-12-17T05:06:10.337Z,17.00
2022-12-17T05:08:55.703Z,17.07
2022-12-17T05:11:41.538Z,17.40
2022-12-17T05:14:26.986Z,19.13
2022-12-17T05:17:12.320Z,18.53
2022-12-17T05:19:57.850Z,18.43
2022-12-17T05:22:50.654Z,20.27
2022-12-17T05:25:35.973Z,20.53
2022-12-17T05:28:21.394Z,21.77
2022-12-17T05:31:10.569Z,22.43
2022-12-17T05:33:55.719Z,22.57
2022-12-17T05:36:41.170Z,22.97
2022-12-17T05:39:26.544Z,25.13
2022-12-17T05:42:11.953Z,22.60
2022-12-17T05:44:57.449Z,22.00
2022-12-17T05:47:42.536Z,22.70
2022-12-17T05:50:28.114Z,23.47
2022-12-17T05:53:19.079Z,23.00
2022-12-17T05:56:06.925Z,23.07
2022-12-17T05:58:52.299Z,23.80
2022-12-17T06:01:37.825Z,24.87
2022-12-17T06:04:23.138Z,23.00
2022-12-17T06:07:08.565Z,23.13
2022-12-17T06:09:53.903Z,23.53
2022-12-17T06:12:39.450Z,23.70
2022-12-17T06:15:24.929Z,25.60
2022-12-17T06:18:16.670Z,24.87
2022-12-17T06:21:02.154Z,24.37
2022-12-17T06:23:47.658Z,25.23
2022-12-17T06:26:32.591Z,24.50
2022-12-17T06:29:18.007Z,25.43
2022-12-17T06:32:03.300Z,26.50
2022-12-17T06:34:48.623Z,25.67
2022-12-17T06:37:34.151Z,24.30
2022-12-17T06:40:19.457Z,24.17
2022-12-17T06:43:11.517Z,23.50
2022-12-17T06:45:57.039Z,24.77
2022-12-17T06:48:42.475Z,23.70
2022-12-17T06:51:27.752Z,22.90
2022-12-17T06:54:13.075Z,22.20
2022-12-17T06:56:58.426Z,22.97
2022-12-17T06:59:43.730Z,23.87
2022-12-17T07:02:32.323Z,23.93
2022-12-17T07:05:17.417Z,23.10
2022-12-17T07:08:02.827Z,23.97
2022-12-17T07:10:48.227Z,19.67
2022-12-17T07:13:38.540Z,21.83
2022-12-17T07:16:24.185Z,19.47
2022-12-17T07:19:09.638Z,20.63
2022-12-17T07:21:55.098Z,20.10
2022-12-17T07:24:40.474Z,19.83
2022-12-17T07:27:25.857Z,20.23
2022-12-17T07:30:11.169Z,22.47
2022-12-17T07:32:56.634Z,20.53
2022-12-17T07:35:42.063Z,20.93
2022-12-17T07:38:27.268Z,22.47
2022-12-17T07:41:12.621Z,21.50
2022-12-17T07:43:58.258Z,21.97
2022-12-17T07:46:43.658Z,23.77
2022-12-17T07:49:29.129Z,25.80
2022-12-17T07:52:14.578Z,22.90
2022-12-17T07:54:59.988Z,23.90
2022-12-17T07:57:45.411Z,24.47
2022-12-17T08:00:31.224Z,23.97
2022-12-17T08:03:19.659Z,23.43
2022-12-17T08:06:05.319Z,24.23
2022-12-17T08:08:50.369Z,25.00
2022-12-17T08:11:35.763Z,26.57
2022-12-17T08:14:21.209Z,24.83
2022-12-17T08:17:06.720Z,25.83
2022-12-17T08:19:51.825Z,25.53
2022-12-17T08:22:37.247Z,25.83
2022-12-17T08:25:22.761Z,24.17
2022-12-17T08:28:41.221Z,25.27
2022-12-17T08:31:19.460Z,24.83
2022-12-17T08:34:07.871Z,25.77
2022-12-17T08:36:53.884Z,25.33
2022-12-17T08:39:39.149Z,26.53
2022-12-17T08:42:24.403Z,24.83
2022-12-17T08:45:10.038Z,26.80
2022-12-17T08:47:59.190Z,23.97
2022-12-17T08:50:48.817Z,26.53
2022-12-17T08:53:35.229Z,25.40
2022-12-17T08:56:20.857Z,26.67
2022-12-17T08:59:06.053Z,35.30
2022-12-17T09:01:51.511Z,26.60
2022-12-17T09:04:36.502Z,25.63
2022-12-17T09:07:21.864Z,26.00
2022-12-17T09:10:07.018Z,27.80
2022-12-17T09:12:52.365Z,24.50
2022-12-17T09:15:37.790Z,29.27
2022-12-17T09:18:23.050Z,26.27
2022-12-17T09:21:14.538Z,23.67
2022-12-17T09:24:00.155Z,24.70
2022-12-17T09:26:45.393Z,22.63
2022-12-17T09:29:30.921Z,25.30
2022-12-17T09:32:16.200Z,21.37
2022-12-17T09:35:01.552Z,22.97
2022-12-17T09:37:46.940Z,23.80
2022-12-17T09:40:36.842Z,24.10
2022-12-17T09:43:25.246Z,20.43
2022-12-17T09:46:10.786Z,23.67
2022-12-17T09:48:59.309Z,22.93
2022-12-17T09:51:46.084Z,22.30
2022-12-17T09:54:39.662Z,24.37
2022-12-17T09:57:27.332Z,23.30
2022-12-17T10:00:26.363Z,22.63
2022-12-17T10:03:12.079Z,23.10
2022-12-17T10:05:59.569Z,23.30
2022-12-17T10:08:46.425Z,23.17
2022-12-17T10:11:48.208Z,22.43
2022-12-17T10:14:37.838Z,23.93
2022-12-17T10:17:23.288Z,26.93
2022-12-17T10:20:10.637Z,25.93
2022-12-17T10:23:07.257Z,23.70
2022-12-17T10:25:52.586Z,23.00
2022-12-17T10:28:42.511Z,25.53
2022-12-17T10:31:35.075Z,25.70
2022-12-17T10:34:20.415Z,24.30
2022-12-17T10:37:07.425Z,24.90
2022-12-17T10:39:52.918Z,25.43
2022-12-17T10:42:39.905Z,23.20
2022-12-17T10:45:42.189Z,20.83
2022-12-17T10:48:41.489Z,23.60
2022-12-17T10:51:38.058Z,23.80
2022-12-17T10:54:27.430Z,22.60
2022-12-17T10:57:15.593Z,23.43
2022-12-17T11:00:00.994Z,22.03
2022-12-17T11:02:47.985Z,23.63
2022-12-17T11:05:35.112Z,23.50
2022-12-17T11:08:21.175Z,24.43
2022-12-17T11:11:07.484Z,25.30
2022-12-17T11:13:55.457Z,23.27
2022-12-17T11:16:45.564Z,24.33
2022-12-17T11:19:47.706Z,21.50
2022-12-17T11:22:39.877Z,22.30
2022-12-17T11:25:31.750Z,22.93
2022-12-17T11:28:29.811Z,24.03
2022-12-17T11:31:21.417Z,24.33
2022-12-17T11:34:13.168Z,21.50
2022-12-17T11:37:06.329Z,24.40
2022-12-17T11:40:01.709Z,25.50
2022-12-17T11:42:52.481Z,23.83
2022-12-17T11:45:43.864Z,22.73
2022-12-17T11:48:34.200Z,23.53
2022-12-17T11:51:26.055Z,23.37
2022-12-17T11:54:17.437Z,23.23
2022-12-17T11:57:04.392Z,22.73
2022-12-17T12:00:04.369Z,23.73
2022-12-17T12:02:50.443Z,22.30
2022-12-17T12:05:41.743Z,24.27
2022-12-17T12:08:47.385Z,25.00
2022-12-17T12:11:44.957Z,21.30
2022-12-17T12:14:30.469Z,20.67
2022-12-17T12:17:24.017Z,20.87
2022-12-17T12:20:09.316Z,20.03
2022-12-17T12:23:08.539Z,20.27
2022-12-17T12:26:01.192Z,19.33
2022-12-17T12:28:53.771Z,21.07
2022-12-17T12:31:46.827Z,20.97
2022-12-17T12:34:48.725Z,21.10
2022-12-17T12:37:35.682Z,21.83
2022-12-17T12:40:32.207Z,20.87
2022-12-17T12:43:23.521Z,20.10
2022-12-17T12:46:11.232Z,18.00
2022-12-17T12:48:56.676Z,18.67
2022-12-17T12:51:47.111Z,18.33
2022-12-17T12:54:39.735Z,18.60
2022-12-17T12:57:43.918Z,18.70
2022-12-17T13:00:42.700Z,18.97
2022-12-17T13:03:39.791Z,18.07
2022-12-17T13:06:06.865Z,18.47
2022-12-17T13:08:33.464Z,17.67
2022-12-17T13:11:09.459Z,18.43
2022-12-17T13:13:39.675Z,18.13
2022-12-17T13:16:42.678Z,18.83
2022-12-17T13:19:32.651Z,17.77
2022-12-17T13:22:12.821Z,18.40
2022-12-17T13:24:39.618Z,19.20
2022-12-17T13:27:26.162Z,17.77
2022-12-17T13:29:52.884Z,16.53
2022-12-17T13:32:25.895Z,18.07
2022-12-17T13:34:52.515Z,18.87
2022-12-17T13:37:32.521Z,17.00
2022-12-17T13:40:03.642Z,18.07
2022-12-17T13:42:31.509Z,17.43
2022-12-17T13:44:59.029Z,18.97
2022-12-17T13:47:30.701Z,18.83
2022-12-17T13:50:32.111Z,16.43
2022-12-17T13:52:45.761Z,14.57
2022-12-17T13:55:26.210Z,15.33
2022-12-17T13:57:53.996Z,16.20
2022-12-17T14:00:25.529Z,15.27
2022-12-17T14:02:53.011Z,14.50
2022-12-17T14:05:46.154Z,14.27
2022-12-17T14:08:15.922Z,13.47
2022-12-17T14:10:53.094Z,12.63
2022-12-17T14:13:19.714Z,13.67
2022-12-17T14:15:48.592Z,12.53
2022-12-17T14:18:17.008Z,12.77
2022-12-17T14:20:43.869Z,12.57
2022-12-17T14:23:23.492Z,13.57
2022-12-17T14:25:50.262Z,11.90
2022-12-17T14:28:36.002Z,12.60
2022-12-17T14:31:26.488Z,11.77
2022-12-17T14:34:08.471Z,11.97
2022-12-17T14:36:36.431Z,10.73
2022-12-17T14:39:11.132Z,11.73
2022-12-17T14:41:57.196Z,12.77
2022-12-17T14:44:28.015Z,13.73
2022-12-17T14:47:10.107Z,13.00
2022-12-17T14:49:37.982Z,13.40
2022-12-17T14:52:14.175Z,13.77
2022-12-17T14:54:46.989Z,14.00
2022-12-17T14:57:20.835Z,13.03
2022-12-17T14:59:47.501Z,13.07
2022-12-17T15:02:24.100Z,12.70
2022-12-17T15:04:52.074Z,12.77
2022-12-17T15:07:23.978Z,14.20
2022-12-17T15:09:52.573Z,14.93
2022-12-17T15:12:19.960Z,15.30
2022-12-17T15:14:46.767Z,16.33
2022-12-17T15:17:13.784Z,13.97
2022-12-17T15:19:40.719Z,17.57
2022-12-17T15:22:11.047Z,29.47
2022-12-17T15:24:37.818Z,26.70
2022-12-17T15:27:04.390Z,20.80
2022-12-17T15:29:31.980Z,16.77
2022-12-17T15:31:58.633Z,18.03
2022-12-17T15:34:25.254Z,17.00
2022-12-17T15:36:51.870Z,14.33
2022-12-17T15:39:18.503Z,15.13
2022-12-17T15:42:03.587Z,15.10
2022-12-17T15:44:30.370Z,14.93
2022-12-17T15:46:57.050Z,14.33
2022-12-17T15:49:23.710Z,15.20
2022-12-17T15:51:50.257Z,14.73
2022-12-17T15:54:16.856Z,15.60
2022-12-17T15:56:51.626Z,15.60
2022-12-17T15:59:18.266Z,15.33
2022-12-17T16:01:44.891Z,14.57
2022-12-17T16:04:17.817Z,14.13
2022-12-17T16:06:48.183Z,14.77
2022-12-17T16:09:14.858Z,14.40
2022-12-17T16:11:41.471Z,14.63
2022-12-17T16:14:08.160Z,16.33
2022-12-17T16:16:34.909Z,20.83
2022-12-17T16:19:02.146Z,19.33
2022-12-17T16:21:28.833Z,19.70
2022-12-17T16:23:55.425Z,24.77
2022-12-17T16:26:22.042Z,23.90
2022-12-17T16:28:49.242Z,22.17
2022-12-17T16:31:16.162Z,21.30
2022-12-17T16:33:43.607Z,19.87
2022-12-17T16:36:12.391Z,20.77
2022-12-17T16:38:45.924Z,21.33
2022-12-17T16:41:12.946Z,22.37
2022-12-17T16:43:39.738Z,22.17
2022-12-17T16:46:12.107Z,21.23
2022-12-17T16:48:39.584Z,20.83
2022-12-17T16:51:14.958Z,20.93
2022-12-17T16:53:41.635Z,19.30
2022-12-17T16:56:08.291Z,20.30
2022-12-17T16:58:35.430Z,20.93
2022-12-17T17:01:02.275Z,19.77
2022-12-17T17:03:28.974Z,20.30
2022-12-17T17:05:59.716Z,18.80
2022-12-17T17:08:26.322Z,18.93
2022-12-17T17:10:52.906Z,20.07
2022-12-17T17:13:19.493Z,19.53
2022-12-17T17:15:46.136Z,18.40
2022-12-17T17:18:12.732Z,20.13
2022-12-17T17:20:39.329Z,20.77
2022-12-17T17:23:05.960Z,15.90
2022-12-17T17:25:54.187Z,20.93
2022-12-17T17:28:19.141Z,22.23
2022-12-17T17:30:45.780Z,20.47
2022-12-17T17:33:12.411Z,22.13
2022-12-17T17:35:38.989Z,20.70
2022-12-17T17:38:05.657Z,20.77
2022-12-17T17:40:32.207Z,21.13
2022-12-17T17:42:58.776Z,19.60
2022-12-17T17:45:25.438Z,21.90
2022-12-17T17:47:52.087Z,23.67
2022-12-17T17:50:18.702Z,24.37
2022-12-17T17:52:45.419Z,24.47
2022-12-17T17:55:11.983Z,22.77
2022-12-17T17:57:38.584Z,22.97
2022-12-17T18:00:05.615Z,23.77
2022-12-17T18:02:32.414Z,23.67
2022-12-17T18:04:59.208Z,23.70
2022-12-17T18:07:27.039Z,24.42
2022-12-17T18:09:54.523Z,24.90
2022-12-17T18:12:39.944Z,25.10
2022-12-17T18:15:15.721Z,25.92
2022-12-17T18:17:44.071Z,24.52
2022-12-17T18:20:12.201Z,23.07
2022-12-17T18:22:39.142Z,24.25
2022-12-17T18:25:05.868Z,25.05
2022-12-17T18:27:33.673Z,25.45
2022-12-17T18:30:00.338Z,24.33
2022-12-17T18:32:27.020Z,25.97
2022-12-17T18:34:53.814Z,26.67
2022-12-17T18:37:20.451Z,25.85
2022-12-17T18:39:47.428Z,27.00
2022-12-17T18:42:32.650Z,26.73
2022-12-17T18:44:59.237Z,26.37
2022-12-17T18:47:25.943Z,25.80
2022-12-17T18:49:52.634Z,25.80
2022-12-17T18:52:19.572Z,26.52
2022-12-17T18:54:46.181Z,25.80
2022-12-17T18:57:13.425Z,26.97
2022-12-17T18:59:40.778Z,27.02
2022-12-17T19:02:14.179Z,27.60
2022-12-17T19:04:41.111Z,28.52
2022-12-17T19:07:07.762Z,29.27
2022-12-17T19:09:35.819Z,28.73
2022-12-17T19:12:03.799Z,28.52
2022-12-17T19:14:31.834Z,29.90
2022-12-17T19:16:58.751Z,29.42
2022-12-17T19:19:25.862Z,29.15
2022-12-17T19:21:54.951Z,29.90
2022-12-17T19:24:22.183Z,30.67
2022-12-17T19:26:49.185Z,32.30
2022-12-17T19:29:17.132Z,30.00
2022-12-17T19:31:43.948Z,29.17
2022-12-17T19:34:11.933Z,31.13
2022-12-17T19:36:38.839Z,28.20
2022-12-17T19:39:07.948Z,26.70
2022-12-17T19:41:34.698Z,25.43
2022-12-17T19:44:03.405Z,24.25
2022-12-17T19:46:30.881Z,25.20
2022-12-17T19:48:57.845Z,23.83
2022-12-17T19:51:26.236Z,22.98
2022-12-17T19:53:52.838Z,23.80
2022-12-17T19:56:23.336Z,24.63
2022-12-17T19:58:52.446Z,21.65
2022-12-17T20:01:21.223Z,21.52
2022-12-17T20:03:48.502Z,21.70
2022-12-17T20:06:15.919Z,22.33
2022-12-17T20:08:42.561Z,22.95
2022-12-17T20:11:28.436Z,24.02
2022-12-17T20:13:56.076Z,23.60
2022-12-17T20:16:23.117Z,22.23
2022-12-17T20:18:50.655Z,19.85
2022-12-17T20:21:19.605Z,20.83
2022-12-17T20:23:49.693Z,24.50
2022-12-17T20:26:16.995Z,23.70
2022-12-17T20:28:44.216Z,20.47
2022-12-17T20:31:11.547Z,21.10
2022-12-17T20:33:38.302Z,21.17
2022-12-17T20:36:05.330Z,19.85
2022-12-17T20:38:32.364Z,20.70
2022-12-17T20:40:59.213Z,19.53
2022-12-17T20:43:27.466Z,18.93
2022-12-17T20:45:58.157Z,19.05
2022-12-17T20:48:25.253Z,22.20
2022-12-17T20:50:51.951Z,23.10
2022-12-17T20:53:19.268Z,22.67
2022-12-17T20:55:46.163Z,24.25
2022-12-17T20:58:13.661Z,28.25
2022-12-17T21:00:40.579Z,24.83
2022-12-17T21:03:07.500Z,23.37
2022-12-17T21:05:35.275Z,22.90
2022-12-17T21:08:02.286Z,23.27
2022-12-17T21:10:28.895Z,22.73
2022-12-17T21:13:14.472Z,21.58
2022-12-17T21:15:41.114Z,21.40
2022-12-17T21:18:07.768Z,20.67
2022-12-17T21:20:34.381Z,20.30
2022-12-17T21:23:01.373Z,23.40
2022-12-17T21:25:28.012Z,23.02
2022-12-17T21:27:54.674Z,20.77
2022-12-17T21:30:21.331Z,20.77
2022-12-17T21:32:47.930Z,20.75
2022-12-17T21:35:15.980Z,21.58
2022-12-17T21:37:43.791Z,19.75
2022-12-17T21:40:11.462Z,19.50
2022-12-17T21:42:57.040Z,18.05
2022-12-17T21:45:24.402Z,18.73
2022-12-17T21:47:51.183Z,18.98
2022-12-17T21:50:17.886Z,18.05
2022-12-17T21:52:44.604Z,18.17
2022-12-17T21:55:11.244Z,16.60
2022-12-17T21:57:38.751Z,17.70
2022-12-17T22:00:05.760Z,18.45
2022-12-17T22:02:32.551Z,20.23
2022-12-17T22:05:00.600Z,16.95
2022-12-17T22:07:28.049Z,18.77
2022-12-17T22:10:19.520Z,16.95
2022-12-17T22:13:02.285Z,18.08
2022-12-17T22:15:34.711Z,16.67
2022-12-17T22:18:12.799Z,16.27
2022-12-17T22:20:39.523Z,17.00
2022-12-17T22:23:06.242Z,21.13
2022-12-17T22:25:36.046Z,17.33
2022-12-17T22:28:02.770Z,18.60
2022-12-17T22:30:47.902Z,18.27
2022-12-17T22:33:48.909Z,18.67
2022-12-17T22:37:04.914Z,18.65
2022-12-17T22:40:44.805Z,18.85
2022-12-17T22:44:32.352Z,17.73
2022-12-17T22:44:53.246Z,17.20
2022-12-17T22:47:20.689Z,18.25
2022-12-17T22:49:47.302Z,15.80
2022-12-17T22:52:14.166Z,16.65
2022-12-17T22:54:43.132Z,16.75
2022-12-17T22:57:36.287Z,16.38
2022-12-17T22:59:56.744Z,15.57
2022-12-17T23:02:23.481Z,16.35
2022-12-17T23:04:50.258Z,16.65
2022-12-17T23:07:17.059Z,16.08
2022-12-17T23:09:43.651Z,16.13
2022-12-17T23:12:29.059Z,15.93
2022-12-17T23:14:58.479Z,15.50
2022-12-17T23:17:25.255Z,15.68
2022-12-17T23:19:51.879Z,17.67
2022-12-17T23:22:22.213Z,16.25
2022-12-17T23:24:49.176Z,16.80
2022-12-17T23:27:15.758Z,18.20
2022-12-17T23:29:42.378Z,18.77
2022-12-17T23:32:08.944Z,17.25
2022-12-17T23:34:35.551Z,17.98
2022-12-17T23:37:03.663Z,16.85
2022-12-17T23:39:30.340Z,17.80
2022-12-17T23:41:56.996Z,17.63
2022-12-17T23:44:23.614Z,17.75
2022-12-17T23:46:50.291Z,16.33
2022-12-17T23:49:17.101Z,16.83
2022-12-17T23:51:43.727Z,17.95
2022-12-17T23:54:10.497Z,18.08
2022-12-17T23:56:37.150Z,17.50
2022-12-17T23:59:04.211Z,16.45
